sensor_id;sensor_type;location;lat;lon;timestamp;temperature;humidity
22923;DHT22;11627;51.322;22.816;2023-04-23T00:00:51;7.60;23.60
22923;DHT22;11627;51.322;22.816;2023-04-23T00:03:17;7.60;22.90
22923;DHT22;11627;51.322;22.816;2023-04-23T00:05:45;7.50;21.20
22923;DHT22;11627;51.322;22.816;2023-04-23T00:08:11;7.50;24.20
22923;DHT22;11627;51.322;22.816;2023-04-23T00:10:37;7.40;23.90
22923;DHT22;11627;51.322;22.816;2023-04-23T00:13:04;7.40;25.30
22923;DHT22;11627;51.322;22.816;2023-04-23T00:15:30;7.40;27.50
22923;DHT22;11627;51.322;22.816;2023-04-23T00:17:56;7.30;26.30
22923;DHT22;11627;51.322;22.816;2023-04-23T00:20:22;7.30;24.00
22923;DHT22;11627;51.322;22.816;2023-04-23T00:22:49;7.30;23.40
22923;DHT22;11627;51.322;22.816;2023-04-23T00:25:14;7.20;22.70
22923;DHT22;11627;51.322;22.816;2023-04-23T00:27:40;7.10;23.70
22923;DHT22;11627;51.322;22.816;2023-04-23T00:30:06;7.00;24.70
22923;DHT22;11627;51.322;22.816;2023-04-23T00:32:36;7.00;27.50
22923;DHT22;11627;51.322;22.816;2023-04-23T00:35:02;7.00;31.80
22923;DHT22;11627;51.322;22.816;2023-04-23T00:37:29;6.90;34.60
22923;DHT22;11627;51.322;22.816;2023-04-23T00:39:55;6.90;38.70
22923;DHT22;11627;51.322;22.816;2023-04-23T00:42:20;6.80;39.80
22923;DHT22;11627;51.322;22.816;2023-04-23T00:44:46;6.80;37.80
22923;DHT22;11627;51.322;22.816;2023-04-23T00:47:14;6.70;34.90
22923;DHT22;11627;51.322;22.816;2023-04-23T00:49:42;6.70;40.00
22923;DHT22;11627;51.322;22.816;2023-04-23T00:52:08;6.70;42.50
22923;DHT22;11627;51.322;22.816;2023-04-23T00:54:34;6.70;41.70
22923;DHT22;11627;51.322;22.816;2023-04-23T00:57:00;6.70;37.40
22923;DHT22;11627;51.322;22.816;2023-04-23T00:59:28;6.80;35.20
22923;DHT22;11627;51.322;22.816;2023-04-23T01:01:55;6.80;37.80
22923;DHT22;11627;51.322;22.816;2023-04-23T01:04:23;6.80;37.50
22923;DHT22;11627;51.322;22.816;2023-04-23T01:07:03;6.80;35.30
22923;DHT22;11627;51.322;22.816;2023-04-23T01:09:29;6.80;34.60
22923;DHT22;11627;51.322;22.816;2023-04-23T01:11:57;6.80;33.30
22923;DHT22;11627;51.322;22.816;2023-04-23T01:14:24;6.70;32.20
22923;DHT22;11627;51.322;22.816;2023-04-23T01:16:50;6.60;40.10
22923;DHT22;11627;51.322;22.816;2023-04-23T01:19:17;6.60;41.00
22923;DHT22;11627;51.322;22.816;2023-04-23T01:21:44;6.60;39.60
22923;DHT22;11627;51.322;22.816;2023-04-23T01:24:10;6.50;42.50
22923;DHT22;11627;51.322;22.816;2023-04-23T01:26:37;6.50;42.80
22923;DHT22;11627;51.322;22.816;2023-04-23T01:29:04;6.50;43.90
22923;DHT22;11627;51.322;22.816;2023-04-23T01:31:30;6.40;47.10
22923;DHT22;11627;51.322;22.816;2023-04-23T01:33:58;6.40;52.70
22923;DHT22;11627;51.322;22.816;2023-04-23T01:36:26;6.40;49.80
22923;DHT22;11627;51.322;22.816;2023-04-23T01:38:55;6.30;47.70
22923;DHT22;11627;51.322;22.816;2023-04-23T01:41:21;6.30;50.30
22923;DHT22;11627;51.322;22.816;2023-04-23T01:43:48;6.30;50.10
22923;DHT22;11627;51.322;22.816;2023-04-23T01:46:14;6.30;51.30
22923;DHT22;11627;51.322;22.816;2023-04-23T01:48:40;6.20;57.50
22923;DHT22;11627;51.322;22.816;2023-04-23T01:51:06;6.20;58.80
22923;DHT22;11627;51.322;22.816;2023-04-23T01:53:33;6.20;60.70
22923;DHT22;11627;51.322;22.816;2023-04-23T01:55:59;6.10;63.60
22923;DHT22;11627;51.322;22.816;2023-04-23T01:58:25;6.10;61.10
22923;DHT22;11627;51.322;22.816;2023-04-23T02:00:51;6.10;57.50
22923;DHT22;11627;51.322;22.816;2023-04-23T02:03:17;6.10;57.20
22923;DHT22;11627;51.322;22.816;2023-04-23T02:05:43;6.10;60.70
22923;DHT22;11627;51.322;22.816;2023-04-23T02:08:10;6.00;62.20
22923;DHT22;11627;51.322;22.816;2023-04-23T02:10:37;6.00;64.70
22923;DHT22;11627;51.322;22.816;2023-04-23T02:13:03;6.00;65.10
22923;DHT22;11627;51.322;22.816;2023-04-23T02:15:29;6.00;65.00
22923;DHT22;11627;51.322;22.816;2023-04-23T02:17:55;6.00;63.30
22923;DHT22;11627;51.322;22.816;2023-04-23T02:20:21;5.90;61.70
22923;DHT22;11627;51.322;22.816;2023-04-23T02:22:48;5.90;65.40
22923;DHT22;11627;51.322;22.816;2023-04-23T02:25:14;5.90;62.70
22923;DHT22;11627;51.322;22.816;2023-04-23T02:27:41;5.90;66.70
22923;DHT22;11627;51.322;22.816;2023-04-23T02:30:08;5.90;68.00
22923;DHT22;11627;51.322;22.816;2023-04-23T02:32:35;5.90;67.50
22923;DHT22;11627;51.322;22.816;2023-04-23T02:35:01;5.80;75.10
22923;DHT22;11627;51.322;22.816;2023-04-23T02:37:27;5.80;77.50
22923;DHT22;11627;51.322;22.816;2023-04-23T02:39:54;5.70;76.50
22923;DHT22;11627;51.322;22.816;2023-04-23T02:42:20;5.60;76.00
22923;DHT22;11627;51.322;22.816;2023-04-23T02:44:46;5.60;84.40
22923;DHT22;11627;51.322;22.816;2023-04-23T02:47:11;5.70;87.00
22923;DHT22;11627;51.322;22.816;2023-04-23T02:49:37;5.70;89.30
22923;DHT22;11627;51.322;22.816;2023-04-23T02:52:04;5.70;90.00
22923;DHT22;11627;51.322;22.816;2023-04-23T02:54:30;5.70;90.20
22923;DHT22;11627;51.322;22.816;2023-04-23T02:56:57;5.70;88.20
22923;DHT22;11627;51.322;22.816;2023-04-23T02:59:23;5.80;89.00
22923;DHT22;11627;51.322;22.816;2023-04-23T03:01:49;5.80;84.00
22923;DHT22;11627;51.322;22.816;2023-04-23T03:04:17;5.70;78.20
22923;DHT22;11627;51.322;22.816;2023-04-23T03:06:43;5.70;77.30
22923;DHT22;11627;51.322;22.816;2023-04-23T03:09:09;5.70;75.40
22923;DHT22;11627;51.322;22.816;2023-04-23T03:11:35;5.70;75.60
22923;DHT22;11627;51.322;22.816;2023-04-23T03:14:02;5.70;75.40
22923;DHT22;11627;51.322;22.816;2023-04-23T03:16:30;5.70;74.40
22923;DHT22;11627;51.322;22.816;2023-04-23T03:18:57;5.60;75.80
22923;DHT22;11627;51.322;22.816;2023-04-23T03:21:24;5.60;75.70
22923;DHT22;11627;51.322;22.816;2023-04-23T03:23:50;5.50;78.60
22923;DHT22;11627;51.322;22.816;2023-04-23T03:26:16;5.50;83.70
22923;DHT22;11627;51.322;22.816;2023-04-23T03:28:42;5.50;90.30
22923;DHT22;11627;51.322;22.816;2023-04-23T03:31:10;5.50;91.40
22923;DHT22;11627;51.322;22.816;2023-04-23T03:33:36;5.60;91.80
22923;DHT22;11627;51.322;22.816;2023-04-23T03:36:02;5.60;90.10
22923;DHT22;11627;51.322;22.816;2023-04-23T03:38:28;5.70;87.30
22923;DHT22;11627;51.322;22.816;2023-04-23T03:40:54;5.70;85.20
22923;DHT22;11627;51.322;22.816;2023-04-23T03:43:19;5.70;83.90
22923;DHT22;11627;51.322;22.816;2023-04-23T03:45:45;5.70;85.60
22923;DHT22;11627;51.322;22.816;2023-04-23T03:48:12;5.70;85.00
22923;DHT22;11627;51.322;22.816;2023-04-23T03:50:39;5.80;84.20
22923;DHT22;11627;51.322;22.816;2023-04-23T03:53:06;5.80;84.10
22923;DHT22;11627;51.322;22.816;2023-04-23T03:55:32;5.80;84.70
22923;DHT22;11627;51.322;22.816;2023-04-23T03:57:58;5.90;85.00
22923;DHT22;11627;51.322;22.816;2023-04-23T04:00:26;5.90;83.90
22923;DHT22;11627;51.322;22.816;2023-04-23T04:02:52;5.90;85.60
22923;DHT22;11627;51.322;22.816;2023-04-23T04:05:17;6.00;86.50
22923;DHT22;11627;51.322;22.816;2023-04-23T04:07:43;6.00;89.20
22923;DHT22;11627;51.322;22.816;2023-04-23T04:10:09;6.00;91.20
22923;DHT22;11627;51.322;22.816;2023-04-23T04:12:35;6.10;92.60
22923;DHT22;11627;51.322;22.816;2023-04-23T04:15:02;6.30;92.80
22923;DHT22;11627;51.322;22.816;2023-04-23T04:17:27;6.40;93.20
22923;DHT22;11627;51.322;22.816;2023-04-23T04:19:56;6.50;92.70
22923;DHT22;11627;51.322;22.816;2023-04-23T04:22:23;6.60;93.10
22923;DHT22;11627;51.322;22.816;2023-04-23T04:24:48;6.60;93.10
22923;DHT22;11627;51.322;22.816;2023-04-23T04:27:16;6.70;93.60
22923;DHT22;11627;51.322;22.816;2023-04-23T04:29:42;6.80;94.50
22923;DHT22;11627;51.322;22.816;2023-04-23T04:32:08;6.90;95.30
22923;DHT22;11627;51.322;22.816;2023-04-23T04:34:34;7.00;95.40
22923;DHT22;11627;51.322;22.816;2023-04-23T04:37:03;7.20;95.80
22923;DHT22;11627;51.322;22.816;2023-04-23T04:39:29;7.30;95.90
22923;DHT22;11627;51.322;22.816;2023-04-23T04:41:55;7.30;95.10
22923;DHT22;11627;51.322;22.816;2023-04-23T04:44:22;7.50;93.60
22923;DHT22;11627;51.322;22.816;2023-04-23T04:46:49;7.60;92.20
22923;DHT22;11627;51.322;22.816;2023-04-23T04:49:16;7.70;90.20
22923;DHT22;11627;51.322;22.816;2023-04-23T04:51:44;7.90;85.40
22923;DHT22;11627;51.322;22.816;2023-04-23T04:54:10;8.00;79.20
22923;DHT22;11627;51.322;22.816;2023-04-23T04:56:36;8.10;75.40
22923;DHT22;11627;51.322;22.816;2023-04-23T04:59:03;8.20;69.50
22923;DHT22;11627;51.322;22.816;2023-04-23T05:01:30;8.40;65.20
22923;DHT22;11627;51.322;22.816;2023-04-23T05:03:59;8.50;57.80
22923;DHT22;11627;51.322;22.816;2023-04-23T05:06:26;8.60;51.50
22923;DHT22;11627;51.322;22.816;2023-04-23T05:08:54;8.70;49.00
22923;DHT22;11627;51.322;22.816;2023-04-23T05:11:20;8.80;46.50
22923;DHT22;11627;51.322;22.816;2023-04-23T05:13:48;8.90;39.80
22923;DHT22;11627;51.322;22.816;2023-04-23T05:16:15;9.00;35.50
22923;DHT22;11627;51.322;22.816;2023-04-23T05:18:41;9.10;32.40
22923;DHT22;11627;51.322;22.816;2023-04-23T05:21:07;9.20;28.40
22923;DHT22;11627;51.322;22.816;2023-04-23T05:23:33;9.30;25.60
22923;DHT22;11627;51.322;22.816;2023-04-23T05:26:00;9.40;22.00
22923;DHT22;11627;51.322;22.816;2023-04-23T05:28:29;9.50;18.10
22923;DHT22;11627;51.322;22.816;2023-04-23T05:30:55;9.60;16.90
22923;DHT22;11627;51.322;22.816;2023-04-23T05:33:21;9.70;16.70
22923;DHT22;11627;51.322;22.816;2023-04-23T05:35:47;9.90;15.00
22923;DHT22;11627;51.322;22.816;2023-04-23T05:38:13;10.00;9.90
22923;DHT22;11627;51.322;22.816;2023-04-23T05:40:38;10.10;7.50
22923;DHT22;11627;51.322;22.816;2023-04-23T05:43:04;10.20;5.50
22923;DHT22;11627;51.322;22.816;2023-04-23T05:45:31;10.30;2.70
22923;DHT22;11627;51.322;22.816;2023-04-23T05:47:58;10.40;1.00
22923;DHT22;11627;51.322;22.816;2023-04-23T05:50:25;10.50;1.00
22923;DHT22;11627;51.322;22.816;2023-04-23T05:52:51;10.60;1.00
22923;DHT22;11627;51.322;22.816;2023-04-23T05:55:19;10.70;1.00
22923;DHT22;11627;51.322;22.816;2023-04-23T05:57:45;10.80;1.00
22923;DHT22;11627;51.322;22.816;2023-04-23T06:00:14;10.90;1.00
22923;DHT22;11627;51.322;22.816;2023-04-23T06:02:43;11.00;1.00
22923;DHT22;11627;51.322;22.816;2023-04-23T06:05:09;11.10;1.00
22923;DHT22;11627;51.322;22.816;2023-04-23T06:07:35;11.20;1.00
22923;DHT22;11627;51.322;22.816;2023-04-23T06:10:02;11.30;1.00
22923;DHT22;11627;51.322;22.816;2023-04-23T06:12:29;11.40;1.00
22923;DHT22;11627;51.322;22.816;2023-04-23T06:14:55;11.50;1.00
22923;DHT22;11627;51.322;22.816;2023-04-23T06:17:20;11.60;1.00
22923;DHT22;11627;51.322;22.816;2023-04-23T06:19:46;11.70;1.00
22923;DHT22;11627;51.322;22.816;2023-04-23T06:22:13;11.80;1.00
22923;DHT22;11627;51.322;22.816;2023-04-23T06:24:40;11.90;1.00
22923;DHT22;11627;51.322;22.816;2023-04-23T06:27:06;12.00;1.00
22923;DHT22;11627;51.322;22.816;2023-04-23T06:29:31;12.10;1.00
22923;DHT22;11627;51.322;22.816;2023-04-23T06:32:01;12.20;1.00
22923;DHT22;11627;51.322;22.816;2023-04-23T06:34:27;12.40;1.00
22923;DHT22;11627;51.322;22.816;2023-04-23T06:36:53;12.50;1.00
22923;DHT22;11627;51.322;22.816;2023-04-23T06:39:19;12.60;1.00
22923;DHT22;11627;51.322;22.816;2023-04-23T06:41:45;12.80;1.00
22923;DHT22;11627;51.322;22.816;2023-04-23T06:44:11;12.90;1.00
22923;DHT22;11627;51.322;22.816;2023-04-23T06:46:37;13.10;1.00
22923;DHT22;11627;51.322;22.816;2023-04-23T06:49:03;13.20;1.00
22923;DHT22;11627;51.322;22.816;2023-04-23T06:51:29;13.30;1.00
22923;DHT22;11627;51.322;22.816;2023-04-23T06:53:58;13.40;1.00
22923;DHT22;11627;51.322;22.816;2023-04-23T06:56:23;13.50;1.00
22923;DHT22;11627;51.322;22.816;2023-04-23T06:58:51;13.60;1.00
22923;DHT22;11627;51.322;22.816;2023-04-23T07:01:18;13.80;1.00
22923;DHT22;11627;51.322;22.816;2023-04-23T07:03:43;13.90;1.00
22923;DHT22;11627;51.322;22.816;2023-04-23T07:06:16;13.90;1.00
22923;DHT22;11627;51.322;22.816;2023-04-23T07:08:43;14.00;1.00
22923;DHT22;11627;51.322;22.816;2023-04-23T07:11:10;14.10;1.00
22923;DHT22;11627;51.322;22.816;2023-04-23T07:13:37;14.30;1.00
22923;DHT22;11627;51.322;22.816;2023-04-23T07:16:03;14.30;1.00
22923;DHT22;11627;51.322;22.816;2023-04-23T07:18:29;14.40;1.00
22923;DHT22;11627;51.322;22.816;2023-04-23T07:20:55;14.50;1.00
22923;DHT22;11627;51.322;22.816;2023-04-23T07:23:21;14.50;1.00
22923;DHT22;11627;51.322;22.816;2023-04-23T07:25:48;14.60;1.00
22923;DHT22;11627;51.322;22.816;2023-04-23T07:28:14;14.60;1.00
22923;DHT22;11627;51.322;22.816;2023-04-23T07:30:39;14.80;1.00
22923;DHT22;11627;51.322;22.816;2023-04-23T07:33:05;14.90;1.00
22923;DHT22;11627;51.322;22.816;2023-04-23T07:35:31;15.00;1.00
22923;DHT22;11627;51.322;22.816;2023-04-23T07:37:58;15.20;1.00
22923;DHT22;11627;51.322;22.816;2023-04-23T07:40:25;15.20;1.00
22923;DHT22;11627;51.322;22.816;2023-04-23T07:42:51;15.40;1.00
22923;DHT22;11627;51.322;22.816;2023-04-23T07:45:17;15.50;1.00
22923;DHT22;11627;51.322;22.816;2023-04-23T07:47:43;15.60;1.00
22923;DHT22;11627;51.322;22.816;2023-04-23T07:50:11;15.70;1.00
22923;DHT22;11627;51.322;22.816;2023-04-23T07:52:37;15.70;1.00
22923;DHT22;11627;51.322;22.816;2023-04-23T07:55:04;15.70;1.00
22923;DHT22;11627;51.322;22.816;2023-04-23T07:57:31;15.90;1.00
22923;DHT22;11627;51.322;22.816;2023-04-23T07:59:57;16.00;1.00
22923;DHT22;11627;51.322;22.816;2023-04-23T08:02:22;16.00;1.00
22923;DHT22;11627;51.322;22.816;2023-04-23T08:04:51;16.10;1.00
22923;DHT22;11627;51.322;22.816;2023-04-23T08:07:17;16.20;1.00
22923;DHT22;11627;51.322;22.816;2023-04-23T08:09:43;16.30;1.00
22923;DHT22;11627;51.322;22.816;2023-04-23T08:12:09;16.40;1.00
22923;DHT22;11627;51.322;22.816;2023-04-23T08:14:34;16.50;1.00
22923;DHT22;11627;51.322;22.816;2023-04-23T08:17:00;16.70;1.00
22923;DHT22;11627;51.322;22.816;2023-04-23T08:19:26;16.70;13.30
22923;DHT22;11627;51.322;22.816;2023-04-23T08:21:56;16.80;15.00
22923;DHT22;11627;51.322;22.816;2023-04-23T08:24:22;16.90;54.40
22923;DHT22;11627;51.322;22.816;2023-04-23T08:26:47;16.90;15.10
22923;DHT22;11627;51.322;22.816;2023-04-23T08:29:14;17.00;48.40
22923;DHT22;11627;51.322;22.816;2023-04-23T08:31:40;17.00;60.50
22923;DHT22;11627;51.322;22.816;2023-04-23T08:34:06;17.10;66.70
22923;DHT22;11627;51.322;22.816;2023-04-23T08:36:31;17.10;62.40
22923;DHT22;11627;51.322;22.816;2023-04-23T08:38:57;17.20;68.00
22923;DHT22;11627;51.322;22.816;2023-04-23T08:41:26;17.30;82.10
22923;DHT22;11627;51.322;22.816;2023-04-23T08:46:31;17.50;82.30
22923;DHT22;11627;51.322;22.816;2023-04-23T08:48:59;17.50;82.90
22923;DHT22;11627;51.322;22.816;2023-04-23T08:51:29;17.50;79.50
22923;DHT22;11627;51.322;22.816;2023-04-23T08:53:58;17.60;75.60
22923;DHT22;11627;51.322;22.816;2023-04-23T08:56:28;17.60;76.20
22923;DHT22;11627;51.322;22.816;2023-04-23T08:58:55;17.60;79.50
22923;DHT22;11627;51.322;22.816;2023-04-23T09:01:22;17.70;79.30
22923;DHT22;11627;51.322;22.816;2023-04-23T09:03:49;17.70;78.10
22923;DHT22;11627;51.322;22.816;2023-04-23T09:06:19;17.80;77.50
22923;DHT22;11627;51.322;22.816;2023-04-23T09:08:45;17.80;73.60
22923;DHT22;11627;51.322;22.816;2023-04-23T09:11:12;17.90;73.80
22923;DHT22;11627;51.322;22.816;2023-04-23T09:13:39;18.00;73.80
22923;DHT22;11627;51.322;22.816;2023-04-23T09:16:05;18.00;74.60
22923;DHT22;11627;51.322;22.816;2023-04-23T09:18:31;18.10;72.60
22923;DHT22;11627;51.322;22.816;2023-04-23T09:20:59;18.10;73.00
22923;DHT22;11627;51.322;22.816;2023-04-23T09:23:28;18.20;71.30
22923;DHT22;11627;51.322;22.816;2023-04-23T09:25:57;18.20;72.30
22923;DHT22;11627;51.322;22.816;2023-04-23T09:28:36;18.30;73.90
22923;DHT22;11627;51.322;22.816;2023-04-23T09:31:04;18.40;72.20
22923;DHT22;11627;51.322;22.816;2023-04-23T09:33:33;18.50;72.40
22923;DHT22;11627;51.322;22.816;2023-04-23T09:36:08;18.60;70.80
22923;DHT22;11627;51.322;22.816;2023-04-23T09:38:34;18.60;69.70
22923;DHT22;11627;51.322;22.816;2023-04-23T09:41:20;18.70;69.70
22923;DHT22;11627;51.322;22.816;2023-04-23T09:43:47;18.70;71.60
22923;DHT22;11627;51.322;22.816;2023-04-23T09:46:12;18.80;73.20
22923;DHT22;11627;51.322;22.816;2023-04-23T09:48:41;18.90;73.60
22923;DHT22;11627;51.322;22.816;2023-04-23T09:51:07;18.90;68.80
22923;DHT22;11627;51.322;22.816;2023-04-23T09:53:42;19.00;69.80
22923;DHT22;11627;51.322;22.816;2023-04-23T09:56:11;19.00;70.30
22923;DHT22;11627;51.322;22.816;2023-04-23T09:58:37;19.10;70.50
22923;DHT22;11627;51.322;22.816;2023-04-23T10:01:07;19.10;73.20
22923;DHT22;11627;51.322;22.816;2023-04-23T10:03:33;19.20;73.40
22923;DHT22;11627;51.322;22.816;2023-04-23T10:05:59;19.30;72.50
22923;DHT22;11627;51.322;22.816;2023-04-23T10:08:27;19.30;70.70
22923;DHT22;11627;51.322;22.816;2023-04-23T10:10:54;19.40;71.90
22923;DHT22;11627;51.322;22.816;2023-04-23T10:13:21;19.40;70.90
22923;DHT22;11627;51.322;22.816;2023-04-23T10:15:46;19.40;70.80
22923;DHT22;11627;51.322;22.816;2023-04-23T10:18:13;19.50;68.50
22923;DHT22;11627;51.322;22.816;2023-04-23T10:20:40;19.50;69.80
22923;DHT22;11627;51.322;22.816;2023-04-23T10:23:08;19.60;69.30
22923;DHT22;11627;51.322;22.816;2023-04-23T10:25:38;19.60;69.10
22923;DHT22;11627;51.322;22.816;2023-04-23T10:28:08;19.70;65.00
22923;DHT22;11627;51.322;22.816;2023-04-23T10:30:36;19.70;63.00
22923;DHT22;11627;51.322;22.816;2023-04-23T10:33:03;19.60;65.60
22923;DHT22;11627;51.322;22.816;2023-04-23T10:35:29;19.60;65.20
22923;DHT22;11627;51.322;22.816;2023-04-23T10:37:55;19.80;67.10
22923;DHT22;11627;51.322;22.816;2023-04-23T10:40:29;19.90;66.40
22923;DHT22;11627;51.322;22.816;2023-04-23T10:42:57;20.00;62.60
22923;DHT22;11627;51.322;22.816;2023-04-23T10:45:30;20.00;64.00
22923;DHT22;11627;51.322;22.816;2023-04-23T10:47:57;19.90;58.40
22923;DHT22;11627;51.322;22.816;2023-04-23T10:50:34;19.90;62.70
22923;DHT22;11627;51.322;22.816;2023-04-23T10:53:02;19.90;64.30
22923;DHT22;11627;51.322;22.816;2023-04-23T10:55:31;20.00;66.70
22923;DHT22;11627;51.322;22.816;2023-04-23T10:58:04;20.10;67.40
22923;DHT22;11627;51.322;22.816;2023-04-23T11:00:45;20.30;64.20
22923;DHT22;11627;51.322;22.816;2023-04-23T11:05:59;20.30;67.50
22923;DHT22;11627;51.322;22.816;2023-04-23T11:08:30;20.40;65.20
22923;DHT22;11627;51.322;22.816;2023-04-23T11:11:02;20.30;63.00
22923;DHT22;11627;51.322;22.816;2023-04-23T11:13:32;20.10;66.20
22923;DHT22;11627;51.322;22.816;2023-04-23T11:16:20;20.10;66.10
22923;DHT22;11627;51.322;22.816;2023-04-23T11:19:09;20.10;65.40
22923;DHT22;11627;51.322;22.816;2023-04-23T11:21:57;20.10;66.40
22923;DHT22;11627;51.322;22.816;2023-04-23T11:24:34;20.20;65.20
22923;DHT22;11627;51.322;22.816;2023-04-23T11:27:08;20.30;67.30
22923;DHT22;11627;51.322;22.816;2023-04-23T11:29:37;20.40;65.70
22923;DHT22;11627;51.322;22.816;2023-04-23T11:32:04;20.40;64.00
22923;DHT22;11627;51.322;22.816;2023-04-23T11:34:45;20.60;66.80
22923;DHT22;11627;51.322;22.816;2023-04-23T11:37:16;20.70;62.70
22923;DHT22;11627;51.322;22.816;2023-04-23T11:39:43;20.60;64.30
22923;DHT22;11627;51.322;22.816;2023-04-23T11:42:16;20.70;65.60
22923;DHT22;11627;51.322;22.816;2023-04-23T11:44:45;20.80;65.30
22923;DHT22;11627;51.322;22.816;2023-04-23T11:47:15;20.90;66.70
22923;DHT22;11627;51.322;22.816;2023-04-23T11:49:43;20.90;63.00
22923;DHT22;11627;51.322;22.816;2023-04-23T11:52:10;21.00;63.30
22923;DHT22;11627;51.322;22.816;2023-04-23T11:54:39;21.10;65.40
22923;DHT22;11627;51.322;22.816;2023-04-23T11:57:05;21.20;64.60
22923;DHT22;11627;51.322;22.816;2023-04-23T11:59:31;21.20;64.90
22923;DHT22;11627;51.322;22.816;2023-04-23T12:01:59;21.30;65.20
22923;DHT22;11627;51.322;22.816;2023-04-23T12:04:27;21.30;64.30
22923;DHT22;11627;51.322;22.816;2023-04-23T12:06:55;21.30;64.90
22923;DHT22;11627;51.322;22.816;2023-04-23T12:09:26;20.70;62.20
22923;DHT22;11627;51.322;22.816;2023-04-23T12:11:52;20.80;67.40
22923;DHT22;11627;51.322;22.816;2023-04-23T12:14:24;20.90;67.50
22923;DHT22;11627;51.322;22.816;2023-04-23T12:16:53;21.00;66.90
22923;DHT22;11627;51.322;22.816;2023-04-23T12:19:29;21.20;65.20
22923;DHT22;11627;51.322;22.816;2023-04-23T12:22:01;21.20;63.50
22923;DHT22;11627;51.322;22.816;2023-04-23T12:24:43;21.30;66.20
22923;DHT22;11627;51.322;22.816;2023-04-23T12:27:13;21.50;64.90
22923;DHT22;11627;51.322;22.816;2023-04-23T12:29:40;21.70;63.60
22923;DHT22;11627;51.322;22.816;2023-04-23T12:32:09;21.50;65.00
22923;DHT22;11627;51.322;22.816;2023-04-23T12:34:35;21.30;64.90
22923;DHT22;11627;51.322;22.816;2023-04-23T12:37:05;21.30;66.60
22923;DHT22;11627;51.322;22.816;2023-04-23T12:39:33;21.40;65.90
22923;DHT22;11627;51.322;22.816;2023-04-23T12:42:01;21.60;66.60
22923;DHT22;11627;51.322;22.816;2023-04-23T12:44:33;21.90;64.90
22923;DHT22;11627;51.322;22.816;2023-04-23T12:47:08;21.90;64.10
22923;DHT22;11627;51.322;22.816;2023-04-23T12:49:35;22.10;63.40
22923;DHT22;11627;51.322;22.816;2023-04-23T12:52:06;22.30;64.00
22923;DHT22;11627;51.322;22.816;2023-04-23T12:54:38;22.30;63.70
22923;DHT22;11627;51.322;22.816;2023-04-23T12:57:11;22.40;63.30
22923;DHT22;11627;51.322;22.816;2023-04-23T12:59:38;22.40;62.10
22923;DHT22;11627;51.322;22.816;2023-04-23T13:02:04;22.40;61.90
22923;DHT22;11627;51.322;22.816;2023-04-23T13:04:34;22.50;61.20
22923;DHT22;11627;51.322;22.816;2023-04-23T13:07:01;22.60;62.10
22923;DHT22;11627;51.322;22.816;2023-04-23T13:09:30;22.70;62.60
22923;DHT22;11627;51.322;22.816;2023-04-23T13:11:56;22.80;60.80
22923;DHT22;11627;51.322;22.816;2023-04-23T13:14:22;22.90;60.30
22923;DHT22;11627;51.322;22.816;2023-04-23T13:16:50;23.00;60.30
22923;DHT22;11627;51.322;22.816;2023-04-23T13:19:17;23.10;60.00
22923;DHT22;11627;51.322;22.816;2023-04-23T13:21:43;22.90;59.40
22923;DHT22;11627;51.322;22.816;2023-04-23T13:24:08;23.00;60.70
22923;DHT22;11627;51.322;22.816;2023-04-23T13:26:34;23.10;59.80
22923;DHT22;11627;51.322;22.816;2023-04-23T13:29:02;23.00;58.90
22923;DHT22;11627;51.322;22.816;2023-04-23T13:31:28;22.90;58.90
22923;DHT22;11627;51.322;22.816;2023-04-23T13:33:54;23.00;58.60
22923;DHT22;11627;51.322;22.816;2023-04-23T13:36:20;23.00;58.20
22923;DHT22;11627;51.322;22.816;2023-04-23T13:38:48;23.00;57.50
22923;DHT22;11627;51.322;22.816;2023-04-23T13:41:16;23.10;56.60
22923;DHT22;11627;51.322;22.816;2023-04-23T13:43:45;23.20;58.30
22923;DHT22;11627;51.322;22.816;2023-04-23T13:46:11;23.10;56.20
22923;DHT22;11627;51.322;22.816;2023-04-23T13:48:40;23.10;53.30
22923;DHT22;11627;51.322;22.816;2023-04-23T13:51:07;23.10;54.20
22923;DHT22;11627;51.322;22.816;2023-04-23T13:53:32;23.10;54.80
22923;DHT22;11627;51.322;22.816;2023-04-23T13:55:59;23.20;54.20
22923;DHT22;11627;51.322;22.816;2023-04-23T13:58:26;23.00;54.70
22923;DHT22;11627;51.322;22.816;2023-04-23T14:00:53;23.10;54.90
22923;DHT22;11627;51.322;22.816;2023-04-23T14:03:19;23.00;55.10
22923;DHT22;11627;51.322;22.816;2023-04-23T14:05:45;23.00;54.90
22923;DHT22;11627;51.322;22.816;2023-04-23T14:08:11;23.00;55.40
22923;DHT22;11627;51.322;22.816;2023-04-23T14:10:38;23.10;57.60
22923;DHT22;11627;51.322;22.816;2023-04-23T14:13:04;23.10;56.40
22923;DHT22;11627;51.322;22.816;2023-04-23T14:15:30;23.20;55.00
22923;DHT22;11627;51.322;22.816;2023-04-23T14:17:56;23.20;56.50
22923;DHT22;11627;51.322;22.816;2023-04-23T14:20:22;23.30;55.60
22923;DHT22;11627;51.322;22.816;2023-04-23T14:22:49;23.10;52.30
22923;DHT22;11627;51.322;22.816;2023-04-23T14:25:24;22.40;53.40
22923;DHT22;11627;51.322;22.816;2023-04-23T14:27:55;22.60;56.10
22923;DHT22;11627;51.322;22.816;2023-04-23T14:30:22;22.90;55.80
22923;DHT22;11627;51.322;22.816;2023-04-23T14:32:50;23.10;56.20
22923;DHT22;11627;51.322;22.816;2023-04-23T14:35:18;23.20;56.00
22923;DHT22;11627;51.322;22.816;2023-04-23T14:37:44;23.30;54.50
22923;DHT22;11627;51.322;22.816;2023-04-23T14:40:14;23.30;53.70
22923;DHT22;11627;51.322;22.816;2023-04-23T14:42:46;23.30;53.90
22923;DHT22;11627;51.322;22.816;2023-04-23T14:45:14;23.30;53.20
22923;DHT22;11627;51.322;22.816;2023-04-23T14:47:42;23.30;52.60
22923;DHT22;11627;51.322;22.816;2023-04-23T14:50:14;23.50;53.80
22923;DHT22;11627;51.322;22.816;2023-04-23T14:52:42;23.60;53.00
22923;DHT22;11627;51.322;22.816;2023-04-23T14:55:13;23.90;53.40
22923;DHT22;11627;51.322;22.816;2023-04-23T14:57:40;24.50;52.40
22923;DHT22;11627;51.322;22.816;2023-04-23T15:00:06;25.80;52.80
22923;DHT22;11627;51.322;22.816;2023-04-23T15:02:33;26.90;49.40
22923;DHT22;11627;51.322;22.816;2023-04-23T15:05:00;27.60;48.20
22923;DHT22;11627;51.322;22.816;2023-04-23T15:07:27;28.10;46.80
22923;DHT22;11627;51.322;22.816;2023-04-23T15:09:56;29.50;46.90
22923;DHT22;11627;51.322;22.816;2023-04-23T15:15:03;30.70;45.30
22923;DHT22;11627;51.322;22.816;2023-04-23T15:17:29;31.30;42.80
22923;DHT22;11627;51.322;22.816;2023-04-23T15:19:55;31.80;42.70
22923;DHT22;11627;51.322;22.816;2023-04-23T15:22:26;32.40;41.70
22923;DHT22;11627;51.322;22.816;2023-04-23T15:24:53;32.30;40.60
22923;DHT22;11627;51.322;22.816;2023-04-23T15:27:19;33.10;40.60
22923;DHT22;11627;51.322;22.816;2023-04-23T15:29:47;34.10;40.90
22923;DHT22;11627;51.322;22.816;2023-04-23T15:32:12;33.80;39.40
22923;DHT22;11627;51.322;22.816;2023-04-23T15:34:40;34.10;39.60